sensor_id;sensor_type;location;lat;lon;timestamp;temperature;humidity
19734;DHT22;10018;51.230;7.860;2023-02-28T00:00:50;-2.20;99.90
19734;DHT22;10018;51.230;7.860;2023-02-28T00:03:16;-2.20;99.90
19734;DHT22;10018;51.230;7.860;2023-02-28T00:05:41;-2.20;99.90
19734;DHT22;10018;51.230;7.860;2023-02-28T00:08:08;-2.30;99.90
19734;DHT22;10018;51.230;7.860;2023-02-28T00:10:35;-2.30;99.90
19734;DHT22;10018;51.230;7.860;2023-02-28T00:13:04;-2.30;99.90
19734;DHT22;10018;51.230;7.860;2023-02-28T00:15:30;-2.30;99.90
19734;DHT22;10018;51.230;7.860;2023-02-28T00:17:56;-2.40;99.90
19734;DHT22;10018;51.230;7.860;2023-02-28T00:20:22;-2.40;99.90
19734;DHT22;10018;51.230;7.860;2023-02-28T00:22:50;-2.50;99.90
19734;DHT22;10018;51.230;7.860;2023-02-28T00:25:19;-2.40;99.90
19734;DHT22;10018;51.230;7.860;2023-02-28T00:27:48;-2.40;99.90
19734;DHT22;10018;51.230;7.860;2023-02-28T00:30:17;-2.30;99.90
19734;DHT22;10018;51.230;7.860;2023-02-28T00:32:45;-2.40;99.90
19734;DHT22;10018;51.230;7.860;2023-02-28T00:35:11;-2.30;99.90
19734;DHT22;10018;51.230;7.860;2023-02-28T00:37:37;-2.30;99.90
19734;DHT22;10018;51.230;7.860;2023-02-28T00:40:06;-2.40;99.90
19734;DHT22;10018;51.230;7.860;2023-02-28T00:42:34;-2.50;99.90
19734;DHT22;10018;51.230;7.860;2023-02-28T00:45:00;-2.50;99.90
19734;DHT22;10018;51.230;7.860;2023-02-28T00:47:26;-2.40;99.90
19734;DHT22;10018;51.230;7.860;2023-02-28T00:49:51;-2.40;99.90
19734;DHT22;10018;51.230;7.860;2023-02-28T00:52:17;-2.40;99.90
19734;DHT22;10018;51.230;7.860;2023-02-28T00:54:43;-2.40;99.90
19734;DHT22;10018;51.230;7.860;2023-02-28T00:57:08;-2.40;99.90
19734;DHT22;10018;51.230;7.860;2023-02-28T00:59:34;-2.30;99.90
19734;DHT22;10018;51.230;7.860;2023-02-28T01:02:00;-2.20;99.90
19734;DHT22;10018;51.230;7.860;2023-02-28T01:04:25;-2.20;99.90
19734;DHT22;10018;51.230;7.860;2023-02-28T01:06:51;-2.20;99.90
19734;DHT22;10018;51.230;7.860;2023-02-28T01:09:16;-2.20;99.90
19734;DHT22;10018;51.230;7.860;2023-02-28T01:11:45;-2.10;99.90
19734;DHT22;10018;51.230;7.860;2023-02-28T01:14:13;-2.00;99.90
19734;DHT22;10018;51.230;7.860;2023-02-28T01:16:39;-2.10;99.90
19734;DHT22;10018;51.230;7.860;2023-02-28T01:19:05;-2.00;99.90
19734;DHT22;10018;51.230;7.860;2023-02-28T01:21:33;-2.00;99.90
19734;DHT22;10018;51.230;7.860;2023-02-28T01:24:00;-1.90;99.90
19734;DHT22;10018;51.230;7.860;2023-02-28T01:26:25;-1.90;99.90
19734;DHT22;10018;51.230;7.860;2023-02-28T01:28:52;-1.90;99.90
19734;DHT22;10018;51.230;7.860;2023-02-28T01:31:19;-1.80;99.90
19734;DHT22;10018;51.230;7.860;2023-02-28T01:33:45;-1.90;99.90
19734;DHT22;10018;51.230;7.860;2023-02-28T01:36:21;-1.80;99.90
19734;DHT22;10018;51.230;7.860;2023-02-28T01:38:47;-1.80;99.90
19734;DHT22;10018;51.230;7.860;2023-02-28T01:41:27;-1.80;99.90
19734;DHT22;10018;51.230;7.860;2023-02-28T01:44:02;-1.80;99.90
19734;DHT22;10018;51.230;7.860;2023-02-28T01:46:29;-1.90;99.90
19734;DHT22;10018;51.230;7.860;2023-02-28T01:49:11;-1.90;99.90
19734;DHT22;10018;51.230;7.860;2023-02-28T01:51:42;-1.90;99.90
19734;DHT22;10018;51.230;7.860;2023-02-28T01:54:20;-1.90;99.90
19734;DHT22;10018;51.230;7.860;2023-02-28T01:56:52;-1.90;99.90
19734;DHT22;10018;51.230;7.860;2023-02-28T01:59:25;-1.90;99.90
19734;DHT22;10018;51.230;7.860;2023-02-28T02:01:53;-1.90;99.90
19734;DHT22;10018;51.230;7.860;2023-02-28T02:04:19;-1.90;99.90
19734;DHT22;10018;51.230;7.860;2023-02-28T02:06:47;-1.90;99.90
19734;DHT22;10018;51.230;7.860;2023-02-28T02:09:13;-1.80;99.90
19734;DHT22;10018;51.230;7.860;2023-02-28T02:11:40;-1.90;99.90
19734;DHT22;10018;51.230;7.860;2023-02-28T02:31:18;-2.30;99.90
19734;DHT22;10018;51.230;7.860;2023-02-28T02:36:35;-2.40;99.90
19734;DHT22;10018;51.230;7.860;2023-02-28T02:39:14;-2.50;99.90
19734;DHT22;10018;51.230;7.860;2023-02-28T02:46:51;-2.60;99.90
19734;DHT22;10018;51.230;7.860;2023-02-28T02:49:26;-2.60;99.90
19734;DHT22;10018;51.230;7.860;2023-02-28T02:51:55;-2.60;99.90
19734;DHT22;10018;51.230;7.860;2023-02-28T02:54:28;-2.60;99.90
19734;DHT22;10018;51.230;7.860;2023-02-28T02:56:59;-2.60;99.90
19734;DHT22;10018;51.230;7.860;2023-02-28T02:59:28;-2.60;99.90
19734;DHT22;10018;51.230;7.860;2023-02-28T03:02:00;-2.70;99.90
19734;DHT22;10018;51.230;7.860;2023-02-28T03:04:30;-2.70;99.90
19734;DHT22;10018;51.230;7.860;2023-02-28T03:07:00;-2.80;99.90
19734;DHT22;10018;51.230;7.860;2023-02-28T03:09:26;-2.90;99.90
19734;DHT22;10018;51.230;7.860;2023-02-28T03:11:54;-3.00;99.90
19734;DHT22;10018;51.230;7.860;2023-02-28T03:17:06;-3.00;99.90
19734;DHT22;10018;51.230;7.860;2023-02-28T03:27:27;-3.00;99.90
19734;DHT22;10018;51.230;7.860;2023-02-28T03:35:14;-3.10;99.90
19734;DHT22;10018;51.230;7.860;2023-02-28T03:37:49;-3.10;99.90
19734;DHT22;10018;51.230;7.860;2023-02-28T03:40:19;-3.20;99.90
19734;DHT22;10018;51.230;7.860;2023-02-28T03:42:50;-3.30;99.90
19734;DHT22;10018;51.230;7.860;2023-02-28T03:45:20;-3.20;99.90
19734;DHT22;10018;51.230;7.860;2023-02-28T03:48:01;-3.20;99.90
19734;DHT22;10018;51.230;7.860;2023-02-28T03:50:38;-3.30;99.90
19734;DHT22;10018;51.230;7.860;2023-02-28T03:53:31;-3.20;99.90
19734;DHT22;10018;51.230;7.860;2023-02-28T03:56:22;-3.20;99.90
19734;DHT22;10018;51.230;7.860;2023-02-28T04:01:35;-3.30;99.90
19734;DHT22;10018;51.230;7.860;2023-02-28T04:04:05;-3.30;99.90
19734;DHT22;10018;51.230;7.860;2023-02-28T04:06:32;-3.30;99.90
19734;DHT22;10018;51.230;7.860;2023-02-28T04:08:58;-3.30;99.90
19734;DHT22;10018;51.230;7.860;2023-02-28T04:14:02;-3.40;99.90
19734;DHT22;10018;51.230;7.860;2023-02-28T04:16:31;-3.40;99.90
19734;DHT22;10018;51.230;7.860;2023-02-28T04:18:57;-3.50;99.90
19734;DHT22;10018;51.230;7.860;2023-02-28T04:21:29;-3.50;99.90
19734;DHT22;10018;51.230;7.860;2023-02-28T04:23:55;-3.50;99.90
19734;DHT22;10018;51.230;7.860;2023-02-28T04:26:21;-3.60;99.90
19734;DHT22;10018;51.230;7.860;2023-02-28T04:28:46;-3.60;99.90
19734;DHT22;10018;51.230;7.860;2023-02-28T04:31:12;-3.60;99.90
19734;DHT22;10018;51.230;7.860;2023-02-28T04:33:37;-3.60;99.90
19734;DHT22;10018;51.230;7.860;2023-02-28T04:36:07;-3.60;99.90
19734;DHT22;10018;51.230;7.860;2023-02-28T04:38:35;-3.60;99.90
19734;DHT22;10018;51.230;7.860;2023-02-28T04:41:02;-3.60;99.90
19734;DHT22;10018;51.230;7.860;2023-02-28T04:43:28;-3.60;99.90
19734;DHT22;10018;51.230;7.860;2023-02-28T04:45:55;-3.60;99.90
19734;DHT22;10018;51.230;7.860;2023-02-28T04:48:24;-3.60;99.90
19734;DHT22;10018;51.230;7.860;2023-02-28T04:50:51;-3.60;99.90
19734;DHT22;10018;51.230;7.860;2023-02-28T04:53:17;-3.60;99.90
19734;DHT22;10018;51.230;7.860;2023-02-28T04:55:43;-3.60;99.90
19734;DHT22;10018;51.230;7.860;2023-02-28T04:58:09;-3.60;99.90
19734;DHT22;10018;51.230;7.860;2023-02-28T05:00:34;-3.60;99.90
19734;DHT22;10018;51.230;7.860;2023-02-28T05:03:00;-3.60;99.90
19734;DHT22;10018;51.230;7.860;2023-02-28T05:05:25;-3.70;99.90
19734;DHT22;10018;51.230;7.860;2023-02-28T05:07:51;-3.80;99.90
19734;DHT22;10018;51.230;7.860;2023-02-28T05:10:19;-3.80;99.90
19734;DHT22;10018;51.230;7.860;2023-02-28T05:12:44;-3.80;99.90
19734;DHT22;10018;51.230;7.860;2023-02-28T05:15:14;-3.80;99.90
19734;DHT22;10018;51.230;7.860;2023-02-28T05:17:40;-3.80;99.90
19734;DHT22;10018;51.230;7.860;2023-02-28T05:20:07;-3.90;99.90
19734;DHT22;10018;51.230;7.860;2023-02-28T05:22:36;-3.80;99.90
19734;DHT22;10018;51.230;7.860;2023-02-28T05:25:03;-3.90;99.90
19734;DHT22;10018;51.230;7.860;2023-02-28T05:27:30;-3.90;99.90
19734;DHT22;10018;51.230;7.860;2023-02-28T05:29:55;-3.90;99.90
19734;DHT22;10018;51.230;7.860;2023-02-28T05:32:21;-3.90;99.90
19734;DHT22;10018;51.230;7.860;2023-02-28T05:34:47;-3.90;99.90
19734;DHT22;10018;51.230;7.860;2023-02-28T05:37:13;-3.90;99.90
19734;DHT22;10018;51.230;7.860;2023-02-28T05:39:39;-4.00;99.90
19734;DHT22;10018;51.230;7.860;2023-02-28T05:42:05;-4.00;99.90
19734;DHT22;10018;51.230;7.860;2023-02-28T05:44:30;-4.00;99.90
19734;DHT22;10018;51.230;7.860;2023-02-28T05:46:58;-4.00;99.90
19734;DHT22;10018;51.230;7.860;2023-02-28T05:49:24;-3.90;99.90
19734;DHT22;10018;51.230;7.860;2023-02-28T05:51:49;-4.00;99.90
19734;DHT22;10018;51.230;7.860;2023-02-28T05:54:15;-4.00;99.90
19734;DHT22;10018;51.230;7.860;2023-02-28T05:56:40;-4.00;99.90
19734;DHT22;10018;51.230;7.860;2023-02-28T05:59:09;-4.10;99.90
19734;DHT22;10018;51.230;7.860;2023-02-28T06:01:44;-4.10;99.90
19734;DHT22;10018;51.230;7.860;2023-02-28T06:04:20;-4.10;99.90
19734;DHT22;10018;51.230;7.860;2023-02-28T06:06:52;-4.20;99.90
19734;DHT22;10018;51.230;7.860;2023-02-28T06:09:18;-4.10;99.90
19734;DHT22;10018;51.230;7.860;2023-02-28T06:11:46;-4.10;99.90
19734;DHT22;10018;51.230;7.860;2023-02-28T06:14:18;-4.20;99.90
19734;DHT22;10018;51.230;7.860;2023-02-28T06:16:44;-4.20;99.90
19734;DHT22;10018;51.230;7.860;2023-02-28T06:19:10;-4.20;99.90
19734;DHT22;10018;51.230;7.860;2023-02-28T06:21:36;-4.20;99.90
19734;DHT22;10018;51.230;7.860;2023-02-28T06:24:03;-4.10;99.90
19734;DHT22;10018;51.230;7.860;2023-02-28T06:26:29;-4.10;99.90
19734;DHT22;10018;51.230;7.860;2023-02-28T06:28:57;-4.10;99.90
19734;DHT22;10018;51.230;7.860;2023-02-28T06:31:23;-4.10;99.90
19734;DHT22;10018;51.230;7.860;2023-02-28T06:33:49;-4.10;99.90
19734;DHT22;10018;51.230;7.860;2023-02-28T06:36:16;-4.10;99.90
19734;DHT22;10018;51.230;7.860;2023-02-28T06:38:42;-4.10;99.90
19734;DHT22;10018;51.230;7.860;2023-02-28T06:41:08;-4.10;99.90
19734;DHT22;10018;51.230;7.860;2023-02-28T06:43:37;-4.00;99.90
19734;DHT22;10018;51.230;7.860;2023-02-28T06:46:04;-4.00;99.90
19734;DHT22;10018;51.230;7.860;2023-02-28T06:48:30;-4.00;99.90
19734;DHT22;10018;51.230;7.860;2023-02-28T06:51:08;-4.00;99.90
19734;DHT22;10018;51.230;7.860;2023-02-28T06:53:36;-4.00;99.90
19734;DHT22;10018;51.230;7.860;2023-02-28T06:56:11;-3.90;99.90
19734;DHT22;10018;51.230;7.860;2023-02-28T06:58:37;-3.90;99.90
19734;DHT22;10018;51.230;7.860;2023-02-28T07:01:06;-3.90;99.90
19734;DHT22;10018;51.230;7.860;2023-02-28T07:03:32;-4.00;99.90
19734;DHT22;10018;51.230;7.860;2023-02-28T07:05:58;-4.00;99.90
19734;DHT22;10018;51.230;7.860;2023-02-28T07:08:24;-4.00;99.90
19734;DHT22;10018;51.230;7.860;2023-02-28T07:10:54;-3.90;99.90
19734;DHT22;10018;51.230;7.860;2023-02-28T07:13:20;-3.90;99.90
19734;DHT22;10018;51.230;7.860;2023-02-28T07:16:03;-3.80;99.90
19734;DHT22;10018;51.230;7.860;2023-02-28T07:18:29;-3.90;99.90
19734;DHT22;10018;51.230;7.860;2023-02-28T07:20:54;-3.80;99.90
19734;DHT22;10018;51.230;7.860;2023-02-28T07:23:23;-3.70;99.90
19734;DHT22;10018;51.230;7.860;2023-02-28T07:25:50;-3.80;99.90
19734;DHT22;10018;51.230;7.860;2023-02-28T07:28:15;-3.80;99.90
19734;DHT22;10018;51.230;7.860;2023-02-28T07:30:41;-3.80;99.90
19734;DHT22;10018;51.230;7.860;2023-02-28T07:33:07;-3.70;99.90
19734;DHT22;10018;51.230;7.860;2023-02-28T07:35:32;-3.70;99.90
19734;DHT22;10018;51.230;7.860;2023-02-28T07:37:59;-3.60;99.90
19734;DHT22;10018;51.230;7.860;2023-02-28T07:40:25;-3.40;99.90
19734;DHT22;10018;51.230;7.860;2023-02-28T07:42:50;-3.30;99.90
19734;DHT22;10018;51.230;7.860;2023-02-28T07:45:19;-3.20;99.90
19734;DHT22;10018;51.230;7.860;2023-02-28T07:47:45;-3.00;99.90
19734;DHT22;10018;51.230;7.860;2023-02-28T07:50:13;-3.00;99.90
19734;DHT22;10018;51.230;7.860;2023-02-28T07:52:39;-2.90;99.90
19734;DHT22;10018;51.230;7.860;2023-02-28T07:55:07;-2.90;99.90
19734;DHT22;10018;51.230;7.860;2023-02-28T07:57:35;-2.90;99.90
19734;DHT22;10018;51.230;7.860;2023-02-28T08:00:02;-2.80;99.90
19734;DHT22;10018;51.230;7.860;2023-02-28T08:02:28;-2.70;99.90
19734;DHT22;10018;51.230;7.860;2023-02-28T08:04:56;-2.60;99.90
19734;DHT22;10018;51.230;7.860;2023-02-28T08:07:22;-2.40;99.90
19734;DHT22;10018;51.230;7.860;2023-02-28T08:09:47;-2.30;99.90
19734;DHT22;10018;51.230;7.860;2023-02-28T08:12:13;-2.20;99.90
19734;DHT22;10018;51.230;7.860;2023-02-28T08:14:39;-2.00;99.90
19734;DHT22;10018;51.230;7.860;2023-02-28T08:17:05;-1.80;99.90
19734;DHT22;10018;51.230;7.860;2023-02-28T08:19:30;-1.70;99.90
19734;DHT22;10018;51.230;7.860;2023-02-28T08:21:59;-1.50;99.90
19734;DHT22;10018;51.230;7.860;2023-02-28T08:24:25;-1.30;99.90
19734;DHT22;10018;51.230;7.860;2023-02-28T08:26:51;-1.10;99.90
19734;DHT22;10018;51.230;7.860;2023-02-28T08:29:16;-1.00;99.90
19734;DHT22;10018;51.230;7.860;2023-02-28T08:31:42;-0.90;99.90
19734;DHT22;10018;51.230;7.860;2023-02-28T08:34:09;-0.80;99.90
19734;DHT22;10018;51.230;7.860;2023-02-28T08:36:37;-0.60;99.90
19734;DHT22;10018;51.230;7.860;2023-02-28T08:39:03;-0.50;99.90
19734;DHT22;10018;51.230;7.860;2023-02-28T08:41:29;-0.50;99.90
19734;DHT22;10018;51.230;7.860;2023-02-28T08:43:57;-0.40;99.90
19734;DHT22;10018;51.230;7.860;2023-02-28T08:46:23;-0.40;99.90
19734;DHT22;10018;51.230;7.860;2023-02-28T08:48:52;-0.30;99.90
19734;DHT22;10018;51.230;7.860;2023-02-28T08:51:20;-0.20;99.90
19734;DHT22;10018;51.230;7.860;2023-02-28T08:53:52;-0.20;99.90
19734;DHT22;10018;51.230;7.860;2023-02-28T08:56:19;-0.10;99.90
19734;DHT22;10018;51.230;7.860;2023-02-28T08:58:46;0.10;99.90
19734;DHT22;10018;51.230;7.860;2023-02-28T09:01:19;0.30;99.90
19734;DHT22;10018;51.230;7.860;2023-02-28T09:03:47;0.60;99.90
19734;DHT22;10018;51.230;7.860;2023-02-28T09:06:13;0.70;99.90
19734;DHT22;10018;51.230;7.860;2023-02-28T09:08:40;0.90;99.90
19734;DHT22;10018;51.230;7.860;2023-02-28T09:11:06;1.00;99.90
19734;DHT22;10018;51.230;7.860;2023-02-28T09:13:32;1.10;99.90
19734;DHT22;10018;51.230;7.860;2023-02-28T09:15:59;1.20;99.90
19734;DHT22;10018;51.230;7.860;2023-02-28T09:18:26;1.30;99.90
19734;DHT22;10018;51.230;7.860;2023-02-28T09:20:52;1.30;99.90
19734;DHT22;10018;51.230;7.860;2023-02-28T09:23:18;1.30;99.90
19734;DHT22;10018;51.230;7.860;2023-02-28T09:25:49;1.30;99.90
19734;DHT22;10018;51.230;7.860;2023-02-28T09:28:15;1.30;99.90
19734;DHT22;10018;51.230;7.860;2023-02-28T09:30:44;1.30;99.90
19734;DHT22;10018;51.230;7.860;2023-02-28T09:33:10;1.40;99.90
19734;DHT22;10018;51.230;7.860;2023-02-28T09:35:35;1.30;99.90
19734;DHT22;10018;51.230;7.860;2023-02-28T09:38:03;1.30;99.90
19734;DHT22;10018;51.230;7.860;2023-02-28T09:40:29;1.30;99.90
19734;DHT22;10018;51.230;7.860;2023-02-28T09:42:57;1.30;99.90
19734;DHT22;10018;51.230;7.860;2023-02-28T09:45:35;1.40;99.90
19734;DHT22;10018;51.230;7.860;2023-02-28T09:48:07;1.40;99.90
19734;DHT22;10018;51.230;7.860;2023-02-28T09:50:40;1.40;99.90
19734;DHT22;10018;51.230;7.860;2023-02-28T09:53:29;1.40;99.90
19734;DHT22;10018;51.230;7.860;2023-02-28T09:56:03;1.50;99.90
19734;DHT22;10018;51.230;7.860;2023-02-28T09:58:51;1.60;99.90
19734;DHT22;10018;51.230;7.860;2023-02-28T10:01:39;1.70;99.90
19734;DHT22;10018;51.230;7.860;2023-02-28T10:06:44;1.80;99.90
19734;DHT22;10018;51.230;7.860;2023-02-28T10:09:15;1.80;99.90
19734;DHT22;10018;51.230;7.860;2023-02-28T10:11:43;1.90;99.90
19734;DHT22;10018;51.230;7.860;2023-02-28T10:14:16;2.00;99.90
19734;DHT22;10018;51.230;7.860;2023-02-28T10:17:04;2.00;99.90
19734;DHT22;10018;51.230;7.860;2023-02-28T10:22:25;2.30;99.90
19734;DHT22;10018;51.230;7.860;2023-02-28T10:24:54;2.30;99.90
19734;DHT22;10018;51.230;7.860;2023-02-28T10:27:28;2.50;99.90
19734;DHT22;10018;51.230;7.860;2023-02-28T10:29:56;2.50;99.90
19734;DHT22;10018;51.230;7.860;2023-02-28T10:32:25;2.40;99.90
19734;DHT22;10018;51.230;7.860;2023-02-28T10:37:38;2.50;99.90
19734;DHT22;10018;51.230;7.860;2023-02-28T10:42:58;2.30;99.90
19734;DHT22;10018;51.230;7.860;2023-02-28T10:45:24;2.40;99.90
19734;DHT22;10018;51.230;7.860;2023-02-28T10:56:02;2.30;99.90
19734;DHT22;10018;51.230;7.860;2023-02-28T11:01:42;2.50;99.90
19734;DHT22;10018;51.230;7.860;2023-02-28T11:04:36;2.60;99.90
19734;DHT22;10018;51.230;7.860;2023-02-28T11:07:20;2.70;99.90
19734;DHT22;10018;51.230;7.860;2023-02-28T11:09:54;2.70;99.90
19734;DHT22;10018;51.230;7.860;2023-02-28T11:12:29;2.80;99.90
19734;DHT22;10018;51.230;7.860;2023-02-28T11:15:02;2.80;99.90
19734;DHT22;10018;51.230;7.860;2023-02-28T11:17:31;3.00;99.90
19734;DHT22;10018;51.230;7.860;2023-02-28T11:20:04;3.10;99.90
19734;DHT22;10018;51.230;7.860;2023-02-28T11:22:38;3.20;99.90
19734;DHT22;10018;51.230;7.860;2023-02-28T11:25:16;3.30;99.90
19734;DHT22;10018;51.230;7.860;2023-02-28T11:27:50;3.30;99.90
19734;DHT22;10018;51.230;7.860;2023-02-28T11:30:39;3.30;99.90
19734;DHT22;10018;51.230;7.860;2023-02-28T11:33:22;3.50;99.90
19734;DHT22;10018;51.230;7.860;2023-02-28T11:35:49;3.50;99.90
19734;DHT22;10018;51.230;7.860;2023-02-28T11:38:15;3.60;99.90
19734;DHT22;10018;51.230;7.860;2023-02-28T11:41:00;3.50;99.90
19734;DHT22;10018;51.230;7.860;2023-02-28T11:43:35;3.60;99.90
19734;DHT22;10018;51.230;7.860;2023-02-28T11:46:26;3.80;99.90
19734;DHT22;10018;51.230;7.860;2023-02-28T11:49:26;3.80;99.90
19734;DHT22;10018;51.230;7.860;2023-02-28T11:52:00;3.90;99.90
19734;DHT22;10018;51.230;7.860;2023-02-28T12:05:33;4.10;99.90
19734;DHT22;10018;51.230;7.860;2023-02-28T12:20:13;4.70;99.90
19734;DHT22;10018;51.230;7.860;2023-02-28T12:27:58;4.80;99.90
19734;DHT22;10018;51.230;7.860;2023-02-28T12:30:29;4.90;99.90
19734;DHT22;10018;51.230;7.860;2023-02-28T12:33:05;5.00;99.90
19734;DHT22;10018;51.230;7.860;2023-02-28T12:35:52;5.00;99.90
19734;DHT22;10018;51.230;7.860;2023-02-28T12:38:46;5.00;99.90
19734;DHT22;10018;51.230;7.860;2023-02-28T12:41:18;4.90;99.90
19734;DHT22;10018;51.230;7.860;2023-02-28T12:46:42;5.20;99.90
19734;DHT22;10018;51.230;7.860;2023-02-28T12:49:13;5.10;99.90
19734;DHT22;10018;51.230;7.860;2023-02-28T12:51:41;5.10;99.90
19734;DHT22;10018;51.230;7.860;2023-02-28T12:54:23;5.20;99.90
19734;DHT22;10018;51.230;7.860;2023-02-28T12:59:56;5.40;99.90
19734;DHT22;10018;51.230;7.860;2023-02-28T13:08:23;5.20;99.90
19734;DHT22;10018;51.230;7.860;2023-02-28T13:10:53;5.00;99.90
19734;DHT22;10018;51.230;7.860;2023-02-28T13:13:24;5.10;99.90
19734;DHT22;10018;51.230;7.860;2023-02-28T13:16:03;5.40;99.90
19734;DHT22;10018;51.230;7.860;2023-02-28T13:18:45;5.50;99.90
19734;DHT22;10018;51.230;7.860;2023-02-28T13:21:27;5.70;99.90
19734;DHT22;10018;51.230;7.860;2023-02-28T13:23:58;5.50;99.90
19734;DHT22;10018;51.230;7.860;2023-02-28T13:29:00;5.40;99.90
19734;DHT22;10018;51.230;7.860;2023-02-28T13:31:26;5.40;99.90
19734;DHT22;10018;51.230;7.860;2023-02-28T13:36:29;5.60;99.90
19734;DHT22;10018;51.230;7.860;2023-02-28T13:39:03;5.70;99.90
19734;DHT22;10018;51.230;7.860;2023-02-28T13:41:48;5.90;99.90
19734;DHT22;10018;51.230;7.860;2023-02-28T13:49:33;7.50;99.90
19734;DHT22;10018;51.230;7.860;2023-02-28T13:55:19;8.90;99.90
19734;DHT22;10018;51.230;7.860;2023-02-28T14:00:49;10.40;99.90
19734;DHT22;10018;51.230;7.860;2023-02-28T14:11:39;11.80;99.90
19734;DHT22;10018;51.230;7.860;2023-02-28T14:14:07;12.70;99.90
19734;DHT22;10018;51.230;7.860;2023-02-28T14:16:45;13.20;99.90
19734;DHT22;10018;51.230;7.860;2023-02-28T14:19:27;12.00;99.30
19734;DHT22;10018;51.230;7.860;2023-02-28T14:22:34;11.80;99.50
19734;DHT22;10018;51.230;7.860;2023-02-28T14:25:18;12.30;98.80
19734;DHT22;10018;51.230;7.860;2023-02-28T14:27:58;13.20;98.70
19734;DHT22;10018;51.230;7.860;2023-02-28T14:36:31;13.20;98.90
19734;DHT22;10018;51.230;7.860;2023-02-28T14:39:04;14.60;95.60
19734;DHT22;10018;51.230;7.860;2023-02-28T14:41:36;13.80;95.00
19734;DHT22;10018;51.230;7.860;2023-02-28T14:44:17;12.80;95.10
19734;DHT22;10018;51.230;7.860;2023-02-28T14:46:44;13.20;95.10
19734;DHT22;10018;51.230;7.860;2023-02-28T14:51:45;13.70;94.50
19734;DHT22;10018;51.230;7.860;2023-02-28T14:54:15;13.80;93.90
19734;DHT22;10018;51.230;7.860;2023-02-28T14:56:49;13.60;93.80
19734;DHT22;10018;51.230;7.860;2023-02-28T15:01:51;13.40;94.70
19734;DHT22;10018;51.230;7.860;2023-02-28T15:04:26;14.00;94.10
19734;DHT22;10018;51.230;7.860;2023-02-28T15:07:14;14.50;92.50
19734;DHT22;10018;51.230;7.860;2023-02-28T15:09:40;13.90;93.00
19734;DHT22;10018;51.230;7.860;2023-02-28T15:12:06;14.20;92.60
19734;DHT22;10018;51.230;7.860;2023-02-28T15:14:32;12.90;92.60
19734;DHT22;10018;51.230;7.860;2023-02-28T15:17:08;13.50;94.20
19734;DHT22;10018;51.230;7.860;2023-02-28T15:19:36;14.00;92.90
19734;DHT22;10018;51.230;7.860;2023-02-28T15:22:05;14.20;92.10
19734;DHT22;10018;51.230;7.860;2023-02-28T15:24:41;14.00;91.80
19734;DHT22;10018;51.230;7.860;2023-02-28T15:27:29;13.60;92.40
19734;DHT22;10018;51.230;7.860;2023-02-28T15:29:59;13.80;92.70
19734;DHT22;10018;51.230;7.860;2023-02-28T15:35:26;11.90;93.30
19734;DHT22;10018;51.230;7.860;2023-02-28T15:37:58;10.30;95.90
19734;DHT22;10018;51.230;7.860;2023-02-28T15:40:28;11.30;95.60
19734;DHT22;10018;51.230;7.860;2023-02-28T15:43:07;10.10;96.10
19734;DHT22;10018;51.230;7.860;2023-02-28T15:45:45;10.30;96.60
19734;DHT22;10018;51.230;7.860;2023-02-28T15:48:19;10.50;96.20
19734;DHT22;10018;51.230;7.860;2023-02-28T15:50:57;9.90;96.20
19734;DHT22;10018;51.230;7.860;2023-02-28T15:53:31;10.20;96.80
19734;DHT22;10018;51.230;7.860;2023-02-28T15:56:04;10.10;96.80
19734;DHT22;10018;51.230;7.860;2023-02-28T15:58:30;10.50;96.50
19734;DHT22;10018;51.230;7.860;2023-02-28T16:01:08;10.00;96.20
19734;DHT22;10018;51.230;7.860;2023-02-28T16:03:46;8.80;97.60
19734;DHT22;10018;51.230;7.860;2023-02-28T16:06:33;7.60;99.50
19734;DHT22;10018;51.230;7.860;2023-02-28T16:08:59;6.80;99.90
19734;DHT22;10018;51.230;7.860;2023-02-28T16:11:25;6.30;99.90
19734;DHT22;10018;51.230;7.860;2023-02-28T16:13:51;5.80;99.90
19734;DHT22;10018;51.230;7.860;2023-02-28T16:16:19;5.20;99.90
19734;DHT22;10018;51.230;7.860;2023-02-28T16:18:46;5.20;99.90
19734;DHT22;10018;51.230;7.860;2023-02-28T16:21:11;4.90;99.90
19734;DHT22;10018;51.230;7.860;2023-02-28T16:23:37;4.70;99.90
19734;DHT22;10018;51.230;7.860;2023-02-28T16:26:04;4.70;99.90
19734;DHT22;10018;51.230;7.860;2023-02-28T16:28:35;4.50;99.90
19734;DHT22;10018;51.230;7.860;2023-02-28T16:31:04;4.40;99.90
19734;DHT22;10018;51.230;7.860;2023-02-28T16:33:31;4.30;99.90
19734;DHT22;10018;51.230;7.860;2023-02-28T16:35:58;4.20;99.90
19734;DHT22;10018;51.230;7.860;2023-02-28T16:38:24;4.20;99.90
19734;DHT22;10018;51.230;7.860;2023-02-28T16:40:50;4.10;99.90
19734;DHT22;10018;51.230;7.860;2023-02-28T16:43:19;4.00;99.90
19734;DHT22;10018;51.230;7.860;2023-02-28T16:45:47;4.00;99.90
19734;DHT22;10018;51.230;7.860;2023-02-28T16:48:14;3.90;99.90
19734;DHT22;10018;51.230;7.860;2023-02-28T16:50:41;3.90;99.90
19734;DHT22;10018;51.230;7.860;2023-02-28T16:53:09;3.80;99.90
19734;DHT22;10018;51.230;7.860;2023-02-28T16:55:35;3.70;99.90
19734;DHT22;10018;51.230;7.860;2023-02-28T16:58:03;3.70;99.90
19734;DHT22;10018;51.230;7.860;2023-02-28T17:00:32;3.60;99.90
19734;DHT22;10018;51.230;7.860;2023-02-28T17:02:58;3.50;99.90
19734;DHT22;10018;51.230;7.860;2023-02-28T17:05:33;3.50;99.90
19734;DHT22;10018;51.230;7.860;2023-02-28T17:08:01;3.40;99.90
19734;DHT22;10018;51.230;7.860;2023-02-28T17:10:26;3.30;99.90
19734;DHT22;10018;51.230;7.860;2023-02-28T17:12:52;3.30;99.90
19734;DHT22;10018;51.230;7.860;2023-02-28T17:15:19;3.20;99.90
19734;DHT22;10018;51.230;7.860;2023-02-28T17:17:46;3.20;99.90
19734;DHT22;10018;51.230;7.860;2023-02-28T17:20:18;3.10;99.90
19734;DHT22;10018;51.230;7.860;2023-02-28T17:22:48;3.00;99.90
19734;DHT22;10018;51.230;7.860;2023-02-28T17:25:14;2.90;99.90
19734;DHT22;10018;51.230;7.860;2023-02-28T17:27:42;2.80;99.90
19734;DHT22;10018;51.230;7.860;2023-02-28T17:32:40;2.70;99.90
19734;DHT22;10018;51.230;7.860;2023-02-28T17:35:08;2.50;99.90
19734;DHT22;10018;51.230;7.860;2023-02-28T17:37:34;2.40;99.90
19734;DHT22;10018;51.230;7.860;2023-02-28T17:39:59;2.30;99.90
19734;DHT22;10018;51.230;7.860;2023-02-28T17:42:25;2.10;99.90
19734;DHT22;10018;51.230;7.860;2023-02-28T17:44:51;2.00;99.90
19734;DHT22;10018;51.230;7.860;2023-02-28T17:47:18;2.00;99.90
19734;DHT22;10018;51.230;7.860;2023-02-28T17:49:44;1.90;99.90
19734;DHT22;10018;51.230;7.860;2023-02-28T17:52:10;1.80;99.90
19734;DHT22;10018;51.230;7.860;2023-02-28T17:54:35;1.60;99.90
19734;DHT22;10018;51.230;7.860;2023-02-28T17:57:01;1.50;99.90
19734;DHT22;10018;51.230;7.860;2023-02-28T17:59:26;1.50;99.90
19734;DHT22;10018;51.230;7.860;2023-02-28T18:01:59;1.30;99.90
19734;DHT22;10018;51.230;7.860;2023-02-28T18:04:24;1.20;99.90
19734;DHT22;10018;51.230;7.860;2023-02-28T18:06:53;1.10;99.90
19734;DHT22;10018;51.230;7.860;2023-02-28T18:09:20;1.00;99.90
19734;DHT22;10018;51.230;7.860;2023-02-28T18:11:50;1.00;99.90
19734;DHT22;10018;51.230;7.860;2023-02-28T18:14:18;0.90;99.90
19734;DHT22;10018;51.230;7.860;2023-02-28T18:16:45;0.80;99.90
19734;DHT22;10018;51.230;7.860;2023-02-28T18:19:13;0.70;99.90
19734;DHT22;10018;51.230;7.860;2023-02-28T18:21:47;0.60;99.90
19734;DHT22;10018;51.230;7.860;2023-02-28T18:24:14;0.50;99.90